createdAt,value
2018-08-28T00:00:26.111Z,3.02
2018-08-28T00:02:56.842Z,2.92
2018-08-28T00:05:27.470Z,2.62
2018-08-28T00:07:58.087Z,3.15
2018-08-28T00:10:28.861Z,2.90
2018-08-28T00:12:59.470Z,3.00
2018-08-28T00:15:30.516Z,3.00
2018-08-28T00:18:01.071Z,2.70
2018-08-28T00:20:32.019Z,3.15
2018-08-28T00:23:02.783Z,2.60
2018-08-28T00:25:33.781Z,3.17
2018-08-28T00:28:04.349Z,2.83
2018-08-28T00:30:34.971Z,2.77
2018-08-28T00:33:05.729Z,3.20
2018-08-28T00:35:35.787Z,2.72
2018-08-28T00:38:07.005Z,2.58
2018-08-28T00:40:37.583Z,2.98
2018-08-28T00:43:07.511Z,2.50
2018-08-28T00:45:37.962Z,2.90
2018-08-28T00:48:08.615Z,2.87
2018-08-28T00:50:39.565Z,2.80
2018-08-28T00:56:45.490Z,2.90
2018-08-28T00:59:15.407Z,2.57
2018-08-28T01:01:45.281Z,2.90
2018-08-28T01:04:15.237Z,2.80
2018-08-28T01:06:45.175Z,2.70
2018-08-28T01:09:15.121Z,2.70
2018-08-28T01:11:45.097Z,2.80
2018-08-28T01:14:14.995Z,2.73
2018-08-28T01:16:44.887Z,2.83
2018-08-28T01:19:14.793Z,2.60
2018-08-28T01:21:44.912Z,2.83
2018-08-28T01:24:14.889Z,2.90
2018-08-28T01:26:44.829Z,2.47
2018-08-28T01:29:14.849Z,2.57
2018-08-28T01:31:44.793Z,2.80
2018-08-28T01:37:50.670Z,3.23
2018-08-28T01:40:20.650Z,2.83
2018-08-28T01:42:50.785Z,2.57
2018-08-28T01:45:20.765Z,2.90
2018-08-28T01:47:50.695Z,3.10
2018-08-28T01:53:56.324Z,2.70
2018-08-28T01:56:26.439Z,2.80
2018-08-28T01:58:56.433Z,2.77
2018-08-28T02:01:26.365Z,2.87
2018-08-28T02:03:56.424Z,3.00
2018-08-28T02:13:38.124Z,2.80
2018-08-28T02:16:08.146Z,2.70
2018-08-28T02:18:38.038Z,2.70
2018-08-28T02:21:08.088Z,2.60
2018-08-28T02:23:38.044Z,2.70
2018-08-28T02:26:08.054Z,2.80
2018-08-28T02:28:38.012Z,2.70
2018-08-28T02:31:07.973Z,2.63
2018-08-28T02:33:38.001Z,2.43
2018-08-28T02:36:08.808Z,2.70
2018-08-28T02:38:38.792Z,2.47
2018-08-28T02:41:09.025Z,2.50
2018-08-28T02:43:38.904Z,2.80
2018-08-28T02:46:08.719Z,2.83
2018-08-28T02:48:38.567Z,2.63
2018-08-28T02:51:08.654Z,2.80
2018-08-28T02:53:38.558Z,2.80
2018-08-28T02:56:08.487Z,2.70
2018-08-28T02:58:38.609Z,2.60
2018-08-28T03:01:08.500Z,2.33
2018-08-28T03:03:38.530Z,2.80
2018-08-28T03:06:08.545Z,2.60
2018-08-28T03:08:38.909Z,2.60
2018-08-28T03:11:08.857Z,2.50
2018-08-28T03:13:38.969Z,2.70
2018-08-28T03:16:09.089Z,2.60
2018-08-28T03:18:39.197Z,3.00
2018-08-28T03:21:09.288Z,2.80
2018-08-28T03:23:39.654Z,2.97
2018-08-28T03:26:10.022Z,2.40
2018-08-28T03:28:40.141Z,2.93
2018-08-28T03:31:10.022Z,3.37
2018-08-28T03:33:40.026Z,2.60
2018-08-28T03:36:09.998Z,2.70
2018-08-28T03:38:40.232Z,2.63
2018-08-28T03:41:10.435Z,3.00
2018-08-28T03:43:40.417Z,2.97
2018-08-28T03:46:10.288Z,2.80
2018-08-28T03:48:40.182Z,2.80
2018-08-28T03:51:10.578Z,2.63
2018-08-28T03:53:40.599Z,2.60
2018-08-28T03:56:10.478Z,2.60
2018-08-28T03:58:40.357Z,2.97
2018-08-28T04:01:10.742Z,2.75
2018-08-28T04:03:40.746Z,2.70
2018-08-28T04:06:11.574Z,2.60
2018-08-28T04:08:41.466Z,3.00
2018-08-28T04:11:11.308Z,2.60
2018-08-28T04:13:41.141Z,2.50
2018-08-28T04:16:11.074Z,2.87
2018-08-28T04:18:41.027Z,2.97
2018-08-28T04:21:10.885Z,3.07
2018-08-28T04:23:40.804Z,2.80
2018-08-28T04:26:10.675Z,2.90
2018-08-28T04:28:40.508Z,2.53
2018-08-28T04:34:46.603Z,2.60
2018-08-28T04:37:16.465Z,2.90
2018-08-28T04:39:46.332Z,2.90
2018-08-28T04:42:16.315Z,2.70
2018-08-28T04:44:46.271Z,2.77
2018-08-28T04:47:16.292Z,14.07
2018-08-28T04:49:46.349Z,2.80
2018-08-28T04:52:16.357Z,2.47
2018-08-28T04:54:46.881Z,2.90
2018-08-28T04:57:17.059Z,2.83
2018-08-28T04:59:47.324Z,2.80
2018-08-28T05:02:17.346Z,2.60
2018-08-28T05:04:47.400Z,2.50
2018-08-28T05:07:17.352Z,2.70
2018-08-28T05:09:47.267Z,3.20
2018-08-28T05:12:17.293Z,2.63
2018-08-28T05:14:47.200Z,2.60
2018-08-28T05:17:17.182Z,2.80
2018-08-28T05:19:47.113Z,3.00
2018-08-28T05:22:17.132Z,2.70
2018-08-28T05:24:48.064Z,2.83
2018-08-28T05:27:18.224Z,2.50
2018-08-28T05:29:48.726Z,2.77
2018-08-28T05:32:18.686Z,2.72
2018-08-28T05:34:49.346Z,2.62
2018-08-28T05:37:19.866Z,2.80
2018-08-28T05:39:50.376Z,2.72
2018-08-28T05:42:20.806Z,3.22
2018-08-28T05:44:51.300Z,2.80
2018-08-28T05:47:21.862Z,2.80
2018-08-28T05:49:52.356Z,2.80
2018-08-28T05:52:22.796Z,2.98
2018-08-28T05:54:53.292Z,2.72
2018-08-28T05:57:23.863Z,2.90
2018-08-28T05:59:54.492Z,2.72
2018-08-28T06:02:24.974Z,2.60
2018-08-28T06:04:55.416Z,2.72
2018-08-28T06:07:25.864Z,3.00
2018-08-28T06:17:08.614Z,3.08
2018-08-28T06:19:38.981Z,2.87
2018-08-28T06:22:09.696Z,3.10
2018-08-28T06:24:40.438Z,3.10
2018-08-28T06:27:11.036Z,3.00
2018-08-28T06:29:42.502Z,3.15
2018-08-28T06:32:12.896Z,2.80
2018-08-28T06:34:43.350Z,3.42
2018-08-28T06:37:13.782Z,3.17
2018-08-28T06:39:44.406Z,3.42
2018-08-28T06:42:14.833Z,3.50
2018-08-28T06:44:45.840Z,3.50
2018-08-28T06:47:16.284Z,3.58
2018-08-28T06:49:46.682Z,3.65
2018-08-28T06:52:17.022Z,3.80
2018-08-28T06:54:47.600Z,3.47
2018-08-28T06:57:18.023Z,3.85
2018-08-28T06:59:48.671Z,3.55
2018-08-28T07:02:19.073Z,3.92
2018-08-28T07:04:49.660Z,3.92
2018-08-28T07:07:20.274Z,4.33
2018-08-28T07:09:50.788Z,3.65
2018-08-28T07:12:21.217Z,3.40
2018-08-28T07:14:51.784Z,3.98
2018-08-28T07:17:22.222Z,4.12
2018-08-28T07:19:52.648Z,3.77
2018-08-28T07:22:23.066Z,4.50
2018-08-28T07:24:53.447Z,3.90
2018-08-28T07:27:24.402Z,4.03
2018-08-28T07:29:54.794Z,4.53
2018-08-28T07:32:25.197Z,4.55
2018-08-28T07:34:55.568Z,4.00
2018-08-28T07:37:25.970Z,3.87
2018-08-28T07:39:57.096Z,4.50
2018-08-28T07:42:27.461Z,5.75
2018-08-28T07:44:57.922Z,5.28
2018-08-28T07:47:28.238Z,5.15
2018-08-28T07:49:58.613Z,4.87
2018-08-28T07:56:05.842Z,4.62
2018-08-28T07:58:36.219Z,4.50
2018-08-28T08:01:07.103Z,4.58
2018-08-28T08:03:37.731Z,4.58
2018-08-28T08:06:08.487Z,4.45
2018-08-28T08:08:39.119Z,4.72
2018-08-28T08:11:09.501Z,4.80
2018-08-28T08:13:39.899Z,4.45
2018-08-28T08:16:10.732Z,4.50
2018-08-28T08:18:41.239Z,4.50
2018-08-28T08:21:11.618Z,4.53
2018-08-28T08:23:41.957Z,4.62
2018-08-28T08:26:12.331Z,4.75
2018-08-28T08:28:42.674Z,4.85
2018-08-28T08:31:13.552Z,5.03
2018-08-28T08:33:44.021Z,4.83
2018-08-28T08:36:14.385Z,4.70
2018-08-28T08:38:44.732Z,5.00
2018-08-28T08:41:15.109Z,4.80
2018-08-28T08:43:45.619Z,4.15
2018-08-28T08:46:16.681Z,4.20
2018-08-28T08:48:47.528Z,4.60
2018-08-28T08:51:17.986Z,4.70
2018-08-28T08:53:48.663Z,4.40
2018-08-28T08:56:19.025Z,4.35
2018-08-28T08:58:49.369Z,4.50
2018-08-28T09:01:20.041Z,4.40
2018-08-28T09:03:50.418Z,4.12
2018-08-28T09:06:20.809Z,4.40
2018-08-28T09:08:51.163Z,4.33
2018-08-28T09:11:22.005Z,4.37
2018-08-28T09:13:52.425Z,3.72
2018-08-28T09:16:22.929Z,4.62
2018-08-28T09:18:53.240Z,4.83
2018-08-28T09:21:23.615Z,4.42
2018-08-28T09:23:53.938Z,4.58
2018-08-28T09:26:24.293Z,4.75
2018-08-28T09:28:54.713Z,4.33
2018-08-28T09:31:25.066Z,4.72
2018-08-28T09:33:55.622Z,4.40
2018-08-28T09:36:25.983Z,4.33
2018-08-28T09:38:56.370Z,4.05
2018-08-28T09:41:26.752Z,4.40
2018-08-28T09:43:57.163Z,4.10
2018-08-28T09:46:27.696Z,4.78
2018-08-28T09:48:58.069Z,4.03
2018-08-28T09:51:28.563Z,4.30
2018-08-28T09:53:58.897Z,4.10
2018-08-28T09:56:29.269Z,4.12
2018-08-28T09:59:00.148Z,4.30
2018-08-28T10:01:36.646Z,4.42
2018-08-28T10:04:07.889Z,4.05
2018-08-28T10:06:38.360Z,4.08
2018-08-28T10:09:17.034Z,4.17
2018-08-28T10:11:47.565Z,5.00
2018-08-28T10:14:17.872Z,4.37
2018-08-28T10:20:24.443Z,4.28
2018-08-28T10:22:54.795Z,4.83
2018-08-28T10:25:25.320Z,4.87
2018-08-28T10:27:55.652Z,4.53
2018-08-28T10:30:26.127Z,4.72
2018-08-28T10:32:56.580Z,4.97
2018-08-28T10:35:26.946Z,4.53
2018-08-28T10:37:57.420Z,4.62
2018-08-28T10:40:27.990Z,4.17
2018-08-28T10:42:58.686Z,4.12
2018-08-28T10:45:29.072Z,3.80
2018-08-28T10:47:59.436Z,4.33
2018-08-28T10:50:29.811Z,4.15
2018-08-28T10:53:00.191Z,4.25
2018-08-28T10:55:30.778Z,4.10
2018-08-28T10:58:01.084Z,4.10
2018-08-28T11:00:31.464Z,4.25
2018-08-28T11:03:01.825Z,4.00
2018-08-28T11:05:32.758Z,4.17
2018-08-28T11:08:03.342Z,3.65
2018-08-28T11:10:33.698Z,4.10
2018-08-28T11:13:04.124Z,4.10
2018-08-28T11:15:34.514Z,4.08
2018-08-28T11:18:04.987Z,4.10
2018-08-28T11:20:35.509Z,4.10
2018-08-28T11:23:05.897Z,4.17
2018-08-28T11:25:36.220Z,4.50
2018-08-28T11:28:06.682Z,4.10
2018-08-28T11:30:37.040Z,4.20
2018-08-28T11:33:07.553Z,4.33
2018-08-28T11:35:37.946Z,4.08
2018-08-28T11:38:08.484Z,3.92
2018-08-28T11:40:38.976Z,3.77
2018-08-28T11:43:09.376Z,3.45
2018-08-28T11:45:39.883Z,3.37
2018-08-28T11:48:10.446Z,3.80
2018-08-28T11:50:40.792Z,4.12
2018-08-28T11:53:11.226Z,3.75
2018-08-28T11:55:41.798Z,3.47
2018-08-28T11:58:12.152Z,3.83
2018-08-28T12:00:43.356Z,4.08
2018-08-28T12:03:13.790Z,3.87
2018-08-28T12:05:44.509Z,3.80
2018-08-28T12:08:14.938Z,3.70
2018-08-28T12:10:45.389Z,3.35
2018-08-28T12:13:15.851Z,3.52
2018-08-28T12:15:46.314Z,3.40
2018-08-28T12:18:16.783Z,3.90
2018-08-28T12:20:47.226Z,3.60
2018-08-28T12:23:17.680Z,3.35
2018-08-28T12:25:48.053Z,3.58
2018-08-28T12:28:18.424Z,3.00
2018-08-28T12:30:48.839Z,3.58
2018-08-28T12:33:19.181Z,3.55
2018-08-28T12:35:49.525Z,3.58
2018-08-28T12:38:19.917Z,4.00
2018-08-28T12:40:50.237Z,3.10
2018-08-28T12:43:20.643Z,3.05
2018-08-28T12:45:51.189Z,3.12
2018-08-28T12:48:21.255Z,3.50
2018-08-28T12:50:52.639Z,3.60
2018-08-28T12:53:22.977Z,3.33
2018-08-28T12:55:53.286Z,3.45
2018-08-28T12:58:23.685Z,3.15
2018-08-28T13:00:54.099Z,3.33
2018-08-28T13:03:24.513Z,3.20
2018-08-28T13:05:55.393Z,3.20
2018-08-28T13:08:25.738Z,3.05
2018-08-28T13:10:56.356Z,3.00
2018-08-28T13:13:26.829Z,3.02
2018-08-28T13:15:56.907Z,2.83
2018-08-28T13:18:27.393Z,3.15
2018-08-28T13:20:57.581Z,3.03
2018-08-28T13:23:27.714Z,3.63
2018-08-28T13:25:58.129Z,3.50
2018-08-28T13:28:28.255Z,3.83
2018-08-28T13:30:58.817Z,4.00
2018-08-28T13:33:29.367Z,3.95
2018-08-28T13:35:59.685Z,3.87
2018-08-28T13:38:30.179Z,4.22
2018-08-28T13:41:00.729Z,4.08
2018-08-28T13:43:30.845Z,3.90
2018-08-28T13:46:00.976Z,3.57
2018-08-28T13:48:31.384Z,3.90
2018-08-28T13:51:01.449Z,4.40
2018-08-28T13:53:31.623Z,4.00
2018-08-28T13:56:01.791Z,3.93
2018-08-28T13:58:31.889Z,4.00
2018-08-28T14:01:01.965Z,3.70
2018-08-28T14:03:32.221Z,3.63
2018-08-28T14:06:02.223Z,4.20
2018-08-28T14:08:32.284Z,4.80
2018-08-28T14:11:02.339Z,4.93
2018-08-28T14:13:32.475Z,4.10
2018-08-28T14:16:02.673Z,4.33
2018-08-28T14:18:32.837Z,4.40
2018-08-28T14:21:03.221Z,4.70
2018-08-28T14:23:33.590Z,5.50
2018-08-28T14:26:04.086Z,4.40
2018-08-28T14:28:34.462Z,4.55
2018-08-28T14:31:05.042Z,4.72
2018-08-28T14:33:35.538Z,4.60
2018-08-28T14:36:05.728Z,5.03
2018-08-28T14:38:36.290Z,5.17
2018-08-28T14:41:07.205Z,5.00
2018-08-28T14:43:37.277Z,4.93
2018-08-28T14:46:08.290Z,4.53
2018-08-28T14:48:38.633Z,5.97
2018-08-28T14:51:09.060Z,5.73
2018-08-28T14:53:39.430Z,6.37
2018-08-28T14:56:09.789Z,6.95
2018-08-28T14:58:39.840Z,6.97
2018-08-28T15:01:09.922Z,5.90
2018-08-28T15:03:40.364Z,7.03
2018-08-28T15:06:10.720Z,7.00
2018-08-28T15:08:41.160Z,7.12
2018-08-28T15:11:11.994Z,7.15
2018-08-28T15:13:42.593Z,7.28
2018-08-28T15:16:13.055Z,6.85
2018-08-28T15:18:43.731Z,7.58
2018-08-28T15:21:14.073Z,7.72
2018-08-28T15:23:44.582Z,7.47
2018-08-28T15:26:14.958Z,7.92
2018-08-28T15:28:45.850Z,7.58
2018-08-28T15:31:16.261Z,8.73
2018-08-28T15:33:46.651Z,10.20
2018-08-28T15:36:17.065Z,10.88
2018-08-28T15:38:47.515Z,10.88
2018-08-28T15:41:17.895Z,10.78
2018-08-28T15:43:48.050Z,12.73
2018-08-28T15:46:18.853Z,11.48
2018-08-28T15:48:49.286Z,10.85
2018-08-28T15:51:19.781Z,10.72
2018-08-28T15:53:50.305Z,9.83
2018-08-28T15:56:20.687Z,10.70
2018-08-28T15:58:51.446Z,10.68
2018-08-28T16:01:21.923Z,12.10
2018-08-28T16:03:52.312Z,11.90
2018-08-28T16:06:22.563Z,13.17
2018-08-28T16:08:52.700Z,12.83
2018-08-28T16:11:23.278Z,13.18
2018-08-28T16:13:53.356Z,13.07
2018-08-28T16:16:23.442Z,12.97
2018-08-28T16:18:53.916Z,13.95
2018-08-28T16:21:29.198Z,15.53
2018-08-28T16:23:59.776Z,14.65
2018-08-28T16:26:30.992Z,16.27
2018-08-28T16:29:01.340Z,14.33
2018-08-28T16:31:31.712Z,14.70
2018-08-28T16:34:02.227Z,16.25
2018-08-28T16:36:32.926Z,15.78
2018-08-28T16:39:03.363Z,16.15
2018-08-28T16:41:33.830Z,15.50
2018-08-28T16:44:04.294Z,16.30
2018-08-28T16:46:34.922Z,15.53
2018-08-28T16:49:05.308Z,14.53
2018-08-28T16:51:35.982Z,15.55
2018-08-28T16:54:06.403Z,15.50
2018-08-28T16:56:36.778Z,15.40
2018-08-28T16:59:07.549Z,15.23
2018-08-28T17:01:38.032Z,15.45
2018-08-28T17:04:08.514Z,15.58
2018-08-28T17:06:38.920Z,15.63
2018-08-28T17:09:09.660Z,15.00
2018-08-28T17:11:40.017Z,14.07
2018-08-28T17:14:10.402Z,13.58
2018-08-28T17:16:40.762Z,14.95
2018-08-28T17:19:11.184Z,14.20
2018-08-28T17:21:42.105Z,14.10
2018-08-28T17:24:12.518Z,13.35
2018-08-28T17:26:42.918Z,13.75
2018-08-28T17:29:13.248Z,14.10
2018-08-28T17:31:43.580Z,12.82
2018-08-28T17:34:13.939Z,14.53
2018-08-28T17:36:44.368Z,13.93
2018-08-28T17:39:14.728Z,13.85
2018-08-28T17:41:45.077Z,14.18
2018-08-28T17:44:15.450Z,13.65
2018-08-28T17:46:45.872Z,13.80
2018-08-28T17:49:16.384Z,13.58
2018-08-28T17:51:47.374Z,14.18
2018-08-28T17:54:17.745Z,15.70
2018-08-28T17:56:48.077Z,14.10
2018-08-28T17:59:18.455Z,15.68
2018-08-28T18:01:48.825Z,16.15
2018-08-28T18:04:19.205Z,16.42
2018-08-28T18:06:49.637Z,16.93
2018-08-28T18:09:19.958Z,16.45
2018-08-28T18:11:50.360Z,17.02
2018-08-28T18:14:20.730Z,16.77
2018-08-28T18:16:51.448Z,16.93
2018-08-28T18:19:21.856Z,17.32
2018-08-28T18:21:52.626Z,17.20
2018-08-28T18:24:23.006Z,17.30
2018-08-28T18:26:53.361Z,16.65
2018-08-28T18:29:23.754Z,17.57
2018-08-28T18:31:54.151Z,17.57
2018-08-28T18:34:24.895Z,16.93
2018-08-28T18:36:55.439Z,17.82
2018-08-28T18:39:25.839Z,17.23
2018-08-28T18:41:56.219Z,15.23
2018-08-28T18:44:26.957Z,15.65
2018-08-28T18:46:58.154Z,16.70
2018-08-28T18:49:28.658Z,11.75
2018-08-28T18:51:59.499Z,16.17
2018-08-28T18:54:29.881Z,17.20
2018-08-28T18:57:00.425Z,15.75
2018-08-28T18:59:30.869Z,14.95
2018-08-28T19:02:01.203Z,12.95
2018-08-28T19:04:31.543Z,13.00
2018-08-28T19:07:02.245Z,13.50
2018-08-28T19:09:32.779Z,14.73
2018-08-28T19:12:03.099Z,15.28
2018-08-28T19:14:33.609Z,14.85
2018-08-28T19:17:04.531Z,13.78
2018-08-28T19:19:35.135Z,12.88
2018-08-28T19:22:05.551Z,13.25
2018-08-28T19:24:35.957Z,13.98
2018-08-28T19:27:06.479Z,12.07
2018-08-28T19:29:37.780Z,11.97
2018-08-28T19:32:08.261Z,11.85
2018-08-28T19:34:38.990Z,12.10
2018-08-28T19:37:09.643Z,11.85
2018-08-28T19:39:40.049Z,12.03
2018-08-28T19:42:10.447Z,10.78
2018-08-28T19:44:41.109Z,10.58
2018-08-28T19:47:11.467Z,10.03
2018-08-28T19:49:41.862Z,9.03
2018-08-28T19:52:12.427Z,7.62
2018-08-28T19:54:42.891Z,7.10
2018-08-28T19:57:13.450Z,7.25
2018-08-28T19:59:45.429Z,6.47
2018-08-28T20:02:15.845Z,6.70
2018-08-28T20:04:46.229Z,7.25
2018-08-28T20:07:16.611Z,6.83
2018-08-28T20:09:47.063Z,6.15
2018-08-28T20:12:17.827Z,5.20
2018-08-28T20:14:48.250Z,5.75
2018-08-28T20:17:18.956Z,4.92
2018-08-28T20:19:49.804Z,5.08
2018-08-28T20:22:20.302Z,4.37
2018-08-28T20:24:50.653Z,4.65
2018-08-28T20:27:21.722Z,4.80
2018-08-28T20:29:52.566Z,4.40
2018-08-28T20:32:23.155Z,4.25
2018-08-28T20:34:53.637Z,4.45
2018-08-28T20:37:24.121Z,4.25
2018-08-28T20:39:54.673Z,4.28
2018-08-28T20:42:25.088Z,4.30
2018-08-28T20:44:55.504Z,4.55
2018-08-28T20:47:59.875Z,4.53
2018-08-28T20:50:30.344Z,4.65
2018-08-28T20:53:00.720Z,4.85
2018-08-28T20:55:31.296Z,4.80
2018-08-28T20:58:01.767Z,5.25
2018-08-28T21:00:35.504Z,5.40
2018-08-28T21:03:07.051Z,5.92
2018-08-28T21:05:37.476Z,6.20
2018-08-28T21:08:07.824Z,5.90
2018-08-28T21:10:38.168Z,5.45
2018-08-28T21:13:09.411Z,5.53
2018-08-28T21:15:40.274Z,5.47
2018-08-28T21:18:10.714Z,6.15
2018-08-28T21:20:41.240Z,5.60
2018-08-28T21:23:11.605Z,5.35
2018-08-28T21:25:42.088Z,5.40
2018-08-28T21:28:12.506Z,5.17
2018-08-28T21:30:42.980Z,5.45
2018-08-28T21:33:13.416Z,4.75
2018-08-28T21:35:43.967Z,5.33
2018-08-28T21:38:15.260Z,5.30
2018-08-28T21:40:45.768Z,4.70
2018-08-28T21:43:16.181Z,4.70
2018-08-28T21:45:46.542Z,5.28
2018-08-28T21:48:17.040Z,5.35
2018-08-28T21:50:47.653Z,5.00
2018-08-28T21:53:18.097Z,4.42
2018-08-28T21:55:48.448Z,5.08
2018-08-28T21:58:18.799Z,4.28
2018-08-28T22:00:54.312Z,4.45
2018-08-28T22:03:24.770Z,4.70
2018-08-28T22:05:55.243Z,3.77
2018-08-28T22:08:25.975Z,4.35
2018-08-28T22:10:56.771Z,4.25
2018-08-28T22:13:27.199Z,4.20
2018-08-28T22:16:54.334Z,4.53
2018-08-28T22:19:25.192Z,5.15
2018-08-28T22:21:55.670Z,4.58
2018-08-28T22:24:26.085Z,5.10
2018-08-28T22:26:58.621Z,4.83
2018-08-28T22:29:29.280Z,4.58
2018-08-28T22:31:59.706Z,4.30
2018-08-28T22:34:30.448Z,3.98
2018-08-28T22:37:00.870Z,4.80
2018-08-28T22:39:31.474Z,4.10
2018-08-28T22:42:01.889Z,4.03
2018-08-28T22:44:32.412Z,4.17
2018-08-28T22:47:02.800Z,4.15
2018-08-28T22:49:33.172Z,4.25
2018-08-28T22:52:03.540Z,3.90
2018-08-28T22:54:33.839Z,4.35
2018-08-28T22:57:04.358Z,4.28
2018-08-28T22:59:34.734Z,4.08
2018-08-28T23:02:05.138Z,4.30
2018-08-28T23:04:35.494Z,4.70
2018-08-28T23:07:05.974Z,4.40
2018-08-28T23:09:36.307Z,4.22
2018-08-28T23:12:06.950Z,4.30
2018-08-28T23:14:37.456Z,3.83
2018-08-28T23:17:07.831Z,4.50
2018-08-28T23:19:38.152Z,3.80
2018-08-28T23:22:08.626Z,4.20
2018-08-28T23:24:39.152Z,3.83
2018-08-28T23:27:09.556Z,4.30
2018-08-28T23:29:39.957Z,3.75
2018-08-28T23:32:09.770Z,4.10
2018-08-28T23:34:40.186Z,3.60
2018-08-28T23:40:47.121Z,3.87
2018-08-28T23:43:17.454Z,3.95
2018-08-28T23:45:47.800Z,4.20
2018-08-28T23:48:18.240Z,4.20
2018-08-28T23:50:48.771Z,3.90
2018-08-28T23:53:19.142Z,3.87
2018-08-28T23:55:49.486Z,4.00
2018-08-28T23:58:19.803Z,3.77
